Humberto Delgado Airport (Lisbon Portela Airport)

LPPT · 里斯本區, 葡萄牙

罗盘
风向 的 风向 的 风向 到 风向 330° Humberto Delgado Airport (Lisbon Portela Airport) 2/20
风向 到 风: 15 kt, 阵阵 25 kt, 4 beaufort

9 kt

12 kt
改变
0 ft 1.000 2.000 3.000 4.000 5.000
Cloud Cloud
FEW 3.000
METAR LPPT 262100Z 33015G25KT 300V360 9999 FEW030 11/06 Q1020

METAR Humberto Delgado Airport (Lisbon Portela Airport) - LPPT/LIS

Humberto Delgado Airport (Lisbon Portela Airport)是,葡萄牙中的大型机场。 该机场位于纬度38,78150和经度-9,13589。 该机场有一条跑道: 2/20. 本场的ICAO机场代码为LPPT。 该机场的IATA代码为LIS。 机场在Lisboa FIR中。

该航空气象观测是针对Humberto Delgado Airport (Lisbon Portela Airport)在2024年2月26日 21:00, 当地时间进行的。

机场观察

风向为330°,速度为15 kt。 已测得25 kt的阵风。 风向在300°和360°之间变化。

可见度为10 km 或者更多。

有几云在3.000 ft的高度。 没有观察到天花板。

温度和风寒是11 °C。 露点为6 °C,相对湿度为72%。 海平面上的气压为1020 hPa (QNH)。

白天

今天,太阳从07:13升起,在18:25降落。 这适用于Humberto Delgado Airport (Lisbon Portela Airport),世界夏令时可能有所不同。 当地时间与世界标准时间之间的时差为+0 小时。 当前,没有夏令时有效。

公司介绍

在这个机场,你可以找到飞行学校。 本场上唯一已知的公司是Aerononautical Web Academy。

体会

到Vliegles.nl去找飞行课程,跳伞和其他飞行体验。 浏览页面,了解Humberto Delgado Airport (Lisbon Portela Airport)附近所有可用的活动。 你也可以使用搜索功能来寻找你所在地附近的特定飞行课程、跳伞或其他飞行体验。

跑道

Id 标题 侧风 逆风 侧风 %
2/20 023°-203° 12-20 kt 9-15 kt 80 %

逆风成分最大的方向会被突出显示,并用于横风计算。 这并不一定意味着这个方向在使用。

乌云

3.000 ft FEW 几云

温度 & 天气

温度 11 °C
露点 6 °C
相对湿度 72%
Kp-index 0 (0-9)

白天

日出
07:13 (10:03)
中午
12:49
日落
18:25

小工具

你想在你的网站上有一个关于Humberto Delgado Airport (Lisbon Portela Airport)的当前航空天气(METAR)的小部件吗?

显示HTML代码
?>